createdAt,value
2018-03-21T00:01:45.724Z,102540.61
2018-03-21T00:04:53.452Z,102542.15
2018-03-21T00:07:58.565Z,102545.27
2018-03-21T00:11:04.156Z,102545.79
2018-03-21T00:17:21.048Z,102547.98
2018-03-21T00:20:26.059Z,102550.27
2018-03-21T00:23:31.033Z,102551.10
2018-03-21T00:29:44.766Z,102558.09
2018-03-21T00:36:00.672Z,102575.80
2018-03-21T00:39:05.942Z,102568.16
2018-03-21T00:42:11.493Z,102576.05
2018-03-21T00:45:18.227Z,102577.17
2018-03-21T00:48:25.303Z,102578.36
2018-03-21T00:51:32.704Z,102572.12
2018-03-21T00:54:36.811Z,102574.14
2018-03-21T00:57:41.615Z,102565.91
2018-03-21T01:00:45.968Z,102562.92
2018-03-21T01:03:54.245Z,102567.50
2018-03-21T01:07:03.284Z,102572.37
2018-03-21T01:10:09.864Z,102574.17
2018-03-21T01:13:16.901Z,102575.22
2018-03-21T01:16:22.244Z,102579.37
2018-03-21T01:19:33.593Z,102575.48
2018-03-21T01:22:39.102Z,102573.17
2018-03-21T01:25:46.944Z,102574.83
2018-03-21T01:28:54.122Z,102578.30
2018-03-21T01:32:01.801Z,102579.05
2018-03-21T01:35:06.482Z,102568.34
2018-03-21T01:38:13.121Z,102575.70
2018-03-21T01:41:18.854Z,102563.58
2018-03-21T01:44:24.117Z,102562.50
2018-03-21T01:47:30.194Z,102554.89
2018-03-21T01:50:35.538Z,102561.38
2018-03-21T01:53:41.629Z,102570.99
2018-03-21T01:56:49.570Z,102557.08
2018-03-21T01:59:54.393Z,102560.42
2018-03-21T02:03:00.929Z,102550.91
2018-03-21T02:06:08.904Z,102548.09
2018-03-21T02:09:13.108Z,102542.17
2018-03-21T02:12:19.645Z,102537.88
2018-03-21T02:15:30.012Z,102541.66
2018-03-21T02:18:39.222Z,102541.84
2018-03-21T02:21:47.621Z,102537.15
2018-03-21T02:24:55.686Z,102533.29
2018-03-21T02:28:03.130Z,102519.63
2018-03-21T02:31:08.617Z,102523.59
2018-03-21T02:34:17.583Z,102535.78
2018-03-21T02:37:25.782Z,102533.67
2018-03-21T02:40:29.357Z,102525.77
2018-03-21T02:43:34.660Z,102529.98
2018-03-21T02:46:40.168Z,102529.11
2018-03-21T02:49:49.325Z,102527.78
2018-03-21T02:52:57.623Z,102524.38
2018-03-21T02:56:05.004Z,102521.42
2018-03-21T02:59:13.658Z,102525.39
2018-03-21T03:02:20.734Z,102530.75
2018-03-21T03:05:29.846Z,102525.59
2018-03-21T03:08:34.662Z,102526.70
2018-03-21T03:11:41.733Z,102525.17
2018-03-21T03:14:45.763Z,102522.19
2018-03-21T03:17:50.901Z,102522.72
2018-03-21T03:20:57.666Z,102520.12
2018-03-21T03:24:03.906Z,102518.45
2018-03-21T03:27:09.074Z,102512.77
2018-03-21T03:33:35.875Z,102521.76
2018-03-21T03:36:40.690Z,102514.55
2018-03-21T03:39:49.175Z,102519.50
2018-03-21T03:42:57.324Z,102514.88
2018-03-21T03:46:04.051Z,102518.18
2018-03-21T03:49:11.607Z,102523.23
2018-03-21T03:55:25.348Z,102524.61
2018-03-21T03:58:31.199Z,102526.03
2018-03-21T04:01:36.357Z,102520.68
2018-03-21T04:04:45.355Z,102523.64
2018-03-21T04:07:49.170Z,102519.14
2018-03-21T04:10:53.419Z,102517.18
2018-03-21T04:13:59.368Z,102510.78
2018-03-21T04:17:03.796Z,102514.11
2018-03-21T04:20:07.227Z,102518.54
2018-03-21T04:23:10.741Z,102521.03
2018-03-21T04:26:14.769Z,102515.30
2018-03-21T04:29:28.401Z,102517.36
2018-03-21T04:32:32.623Z,102509.24
2018-03-21T04:42:57.720Z,102499.73
2018-03-21T04:46:02.366Z,102485.97
2018-03-21T04:49:33.024Z,102480.12
2018-03-21T04:52:37.469Z,102474.95
2018-03-21T04:55:42.746Z,102472.98
2018-03-21T05:05:36.708Z,102482.52
2018-03-21T05:08:59.681Z,102474.77
2018-03-21T05:18:34.277Z,102453.77
2018-03-21T05:21:42.770Z,102456.76
2018-03-21T05:24:50.589Z,102462.83
2018-03-21T05:28:07.829Z,102474.97
2018-03-21T05:38:18.814Z,102465.66
2018-03-21T05:41:27.613Z,102470.31
2018-03-21T05:48:11.756Z,102458.92
2018-03-21T05:51:23.222Z,102464.75
2018-03-21T06:01:01.756Z,102484.02
2018-03-21T06:04:07.661Z,102480.41
2018-03-21T06:07:11.854Z,102484.03
2018-03-21T06:10:18.673Z,102478.77
2018-03-21T06:13:22.985Z,102473.47
2018-03-21T06:16:32.294Z,102461.25
2018-03-21T06:19:36.162Z,102464.53
2018-03-21T06:22:41.613Z,102459.88
2018-03-21T06:25:50.589Z,102460.50
2018-03-21T06:28:54.721Z,102453.43
2018-03-21T06:31:58.136Z,102459.48
2018-03-21T06:35:01.892Z,102448.40
2018-03-21T06:38:06.446Z,102457.37
2018-03-21T06:41:10.279Z,102457.88
2018-03-21T06:44:15.568Z,102446.69
2018-03-21T06:47:20.828Z,102444.59
2018-03-21T06:50:25.161Z,102447.83
2018-03-21T06:53:28.553Z,102445.06
2018-03-21T06:56:31.938Z,102442.82
2018-03-21T06:59:37.946Z,102442.66
2018-03-21T07:02:43.628Z,102453.95
2018-03-21T07:05:47.623Z,102453.78
2018-03-21T07:08:52.557Z,102454.86
2018-03-21T07:11:57.975Z,102447.84
2018-03-21T07:15:19.625Z,102443.68
2018-03-21T07:18:25.100Z,102442.08
2018-03-21T07:21:29.661Z,102449.84
2018-03-21T07:24:33.113Z,102443.37
2018-03-21T07:27:36.596Z,102449.58
2018-03-21T07:30:40.428Z,102451.63
2018-03-21T07:33:43.980Z,102445.53
2018-03-21T07:36:48.468Z,102441.73
2018-03-21T07:39:52.527Z,102436.87
2018-03-21T07:42:56.017Z,102441.19
2018-03-21T07:45:59.457Z,102437.13
2018-03-21T07:49:03.420Z,102432.18
2018-03-21T07:52:08.144Z,102436.02
2018-03-21T07:55:11.592Z,102436.36
2018-03-21T07:58:15.110Z,102433.95
2018-03-21T08:01:18.534Z,102440.27
2018-03-21T08:04:33.743Z,102439.86
2018-03-21T08:07:37.231Z,102439.93
2018-03-21T08:10:40.696Z,102441.56
2018-03-21T08:13:44.228Z,102433.20
2018-03-21T08:16:47.724Z,102432.17
2018-03-21T08:19:51.224Z,102433.52
2018-03-21T08:22:54.736Z,102435.74
2018-03-21T08:25:58.319Z,102437.39
2018-03-21T08:29:01.811Z,102427.28
2018-03-21T08:32:05.265Z,102420.72
2018-03-21T08:35:10.646Z,102424.97
2018-03-21T08:38:14.052Z,102420.48
2018-03-21T08:41:19.920Z,102425.72
2018-03-21T08:44:23.428Z,102428.95
2018-03-21T08:47:26.961Z,102430.00
2018-03-21T08:50:30.325Z,102434.19
2018-03-21T08:53:33.652Z,102432.26
2018-03-21T08:56:37.067Z,102434.36
2018-03-21T08:59:41.003Z,102431.61
2018-03-21T09:02:44.605Z,102428.06
2018-03-21T09:05:48.304Z,102431.89
2018-03-21T09:08:52.593Z,102434.34
2018-03-21T09:11:55.964Z,102415.31
2018-03-21T09:14:59.268Z,102396.37
2018-03-21T09:18:02.604Z,102401.23
2018-03-21T09:21:05.911Z,102402.72
2018-03-21T09:24:09.246Z,102393.16
2018-03-21T09:27:12.576Z,102395.31
2018-03-21T09:30:17.664Z,102399.00
2018-03-21T09:33:21.743Z,102388.38
2018-03-21T09:36:25.051Z,102387.41
2018-03-21T09:39:28.400Z,102386.14
2018-03-21T09:42:31.784Z,102382.64
2018-03-21T09:45:35.121Z,102385.80
2018-03-21T09:48:38.465Z,102387.99
2018-03-21T09:51:42.638Z,102380.19
2018-03-21T09:54:45.961Z,102381.08
2018-03-21T09:57:49.320Z,102373.59
2018-03-21T10:00:52.624Z,102372.49
2018-03-21T10:03:55.947Z,102379.48
2018-03-21T10:06:59.258Z,102380.22
2018-03-21T10:10:02.596Z,102375.97
2018-03-21T10:13:06.348Z,102372.50
2018-03-21T10:16:09.671Z,102375.44
2018-03-21T10:19:13.007Z,102364.83
2018-03-21T10:22:16.322Z,102361.85
2018-03-21T10:25:19.660Z,102358.51
2018-03-21T10:28:22.990Z,102359.00
2018-03-21T10:31:26.303Z,102352.04
2018-03-21T10:34:29.639Z,102344.48
2018-03-21T10:37:33.755Z,102343.39
2018-03-21T10:40:37.066Z,102339.91
2018-03-21T10:43:40.391Z,102350.30
2018-03-21T10:46:43.690Z,102342.16
2018-03-21T10:49:47.026Z,102340.61
2018-03-21T10:52:50.339Z,102348.77
2018-03-21T10:55:54.427Z,102356.92
2018-03-21T10:58:57.734Z,102356.22
2018-03-21T11:02:06.417Z,102340.55
2018-03-21T11:05:09.647Z,102322.36
2018-03-21T11:08:13.021Z,102332.04
2018-03-21T11:11:16.279Z,102340.83
2018-03-21T11:14:19.611Z,102341.53
2018-03-21T11:17:22.915Z,102333.62
2018-03-21T11:20:26.257Z,102337.02
2018-03-21T11:23:29.555Z,102334.36
2018-03-21T11:26:32.872Z,102332.24
2018-03-21T11:29:36.202Z,102340.65
2018-03-21T11:32:39.499Z,102331.55
2018-03-21T11:35:42.814Z,102331.12
2018-03-21T11:38:46.111Z,102330.69
2018-03-21T11:41:49.432Z,102323.91
2018-03-21T11:44:53.524Z,102331.81
2018-03-21T11:47:56.828Z,102327.88
2018-03-21T11:51:00.906Z,102315.58
2018-03-21T11:54:04.243Z,102311.19
2018-03-21T11:57:07.560Z,102310.06
2018-03-21T12:00:10.904Z,102304.38
2018-03-21T12:03:14.210Z,102301.27
2018-03-21T12:06:17.526Z,102302.88
2018-03-21T12:09:20.827Z,102304.31
2018-03-21T12:12:24.908Z,102306.61
2018-03-21T12:15:28.228Z,102301.61
2018-03-21T12:18:32.978Z,102290.05
2018-03-21T12:21:36.313Z,102294.52
2018-03-21T12:24:39.607Z,102283.26
2018-03-21T12:27:42.922Z,102288.84
2018-03-21T12:30:46.221Z,102284.44
2018-03-21T12:33:49.552Z,102292.08
2018-03-21T12:36:53.622Z,102286.28
2018-03-21T12:39:56.958Z,102281.98
2018-03-21T12:43:01.027Z,102284.44
2018-03-21T12:46:04.342Z,102268.77
2018-03-21T12:49:07.663Z,102264.95
2018-03-21T12:52:11.723Z,102274.95
2018-03-21T12:55:15.036Z,102261.91
2018-03-21T12:58:18.336Z,102269.13
2018-03-21T13:01:21.650Z,102266.84
2018-03-21T13:04:24.997Z,102265.83
2018-03-21T13:07:28.308Z,102263.13
2018-03-21T13:10:31.618Z,102258.55
2018-03-21T13:13:34.985Z,102262.22
2018-03-21T13:16:38.259Z,102262.39
2018-03-21T13:19:42.405Z,102264.91
2018-03-21T13:22:46.443Z,102256.63
2018-03-21T13:25:49.758Z,102243.44
2018-03-21T13:28:53.063Z,102245.73
2018-03-21T13:31:56.387Z,102251.72
2018-03-21T13:34:59.704Z,102244.44
2018-03-21T13:38:03.032Z,102245.29
2018-03-21T13:41:06.353Z,102250.36
2018-03-21T13:44:09.647Z,102248.17
2018-03-21T13:47:13.730Z,102251.56
2018-03-21T13:50:17.038Z,102254.08
2018-03-21T13:53:20.408Z,102253.48
2018-03-21T13:56:23.727Z,102252.91
2018-03-21T13:59:27.036Z,102243.00
2018-03-21T14:02:30.343Z,102248.42
2018-03-21T14:05:33.663Z,102242.33
2018-03-21T14:08:36.964Z,102236.23
2018-03-21T14:11:40.347Z,102234.61
2018-03-21T14:14:43.604Z,102234.83
2018-03-21T14:17:46.926Z,102235.09
2018-03-21T14:20:50.244Z,102231.56
2018-03-21T14:23:54.327Z,102230.02
2018-03-21T14:26:57.648Z,102228.06
2018-03-21T14:30:01.789Z,102224.38
2018-03-21T14:33:06.680Z,102236.50
2018-03-21T14:36:10.283Z,102219.87
2018-03-21T14:39:13.631Z,102220.96
2018-03-21T14:42:16.931Z,102227.45
2018-03-21T14:45:20.263Z,102233.78
2018-03-21T14:48:23.576Z,102213.91
2018-03-21T14:51:26.898Z,102215.44
2018-03-21T14:54:30.218Z,102215.50
2018-03-21T14:57:33.548Z,102215.53
2018-03-21T15:00:36.880Z,102210.63
2018-03-21T15:03:40.223Z,102213.48
2018-03-21T15:06:43.535Z,102209.77
2018-03-21T15:09:46.863Z,102209.44
2018-03-21T15:12:50.960Z,102204.53
2018-03-21T15:15:54.291Z,102210.05
2018-03-21T15:18:57.608Z,102201.31
2018-03-21T15:22:00.981Z,102208.59
2018-03-21T15:25:04.312Z,102206.48
2018-03-21T15:28:07.628Z,102196.02
2018-03-21T15:31:10.958Z,102191.70
2018-03-21T15:34:15.916Z,102184.91
2018-03-21T15:37:19.222Z,102185.29
2018-03-21T15:40:22.559Z,102185.67
2018-03-21T15:43:25.870Z,102186.22
2018-03-21T15:46:29.194Z,102183.14
2018-03-21T15:49:32.504Z,102177.84
2018-03-21T15:52:35.819Z,102176.56
2018-03-21T15:55:39.128Z,102165.45
2018-03-21T15:58:42.453Z,102160.73
2018-03-21T16:01:45.781Z,102163.28
2018-03-21T16:04:49.092Z,102168.25
2018-03-21T16:07:52.412Z,102171.58
2018-03-21T16:10:55.734Z,102157.34
2018-03-21T16:13:59.060Z,102158.38
2018-03-21T16:17:02.360Z,102157.73
2018-03-21T16:20:05.687Z,102155.58
2018-03-21T16:23:09.289Z,102151.08
2018-03-21T16:26:12.640Z,102152.03
2018-03-21T16:29:16.716Z,102156.89
2018-03-21T16:32:20.051Z,102151.32
2018-03-21T16:35:24.149Z,102146.73
2018-03-21T16:38:27.452Z,102145.37
2018-03-21T16:41:30.795Z,102150.38
2018-03-21T16:44:34.138Z,102143.12
2018-03-21T16:47:37.468Z,102144.67
2018-03-21T16:50:40.779Z,102140.52
2018-03-21T16:53:44.130Z,102122.49
2018-03-21T16:56:47.440Z,102127.12
2018-03-21T16:59:51.535Z,102122.75
2018-03-21T17:02:54.838Z,102112.92
2018-03-21T17:05:58.159Z,102111.62
2018-03-21T17:09:01.481Z,102101.83
2018-03-21T17:12:04.807Z,102101.14
2018-03-21T17:15:08.107Z,102101.40
2018-03-21T17:18:11.435Z,102094.32
2018-03-21T17:21:15.494Z,102094.36
2018-03-21T17:24:18.818Z,102098.49
2018-03-21T17:27:22.120Z,102104.96
2018-03-21T17:30:25.455Z,102097.81
2018-03-21T17:33:28.754Z,102102.52
2018-03-21T17:36:32.078Z,102102.70
2018-03-21T17:39:35.379Z,102104.39
2018-03-21T17:42:38.708Z,102102.34
2018-03-21T17:45:42.017Z,102094.57
2018-03-21T17:48:46.119Z,102090.72
2018-03-21T17:51:49.429Z,102094.48
2018-03-21T17:54:53.512Z,102094.91
2018-03-21T17:57:58.448Z,102097.66
2018-03-21T18:14:08.890Z,102082.70
2018-03-21T18:18:02.400Z,102078.72
2018-03-21T18:24:58.688Z,102066.16
2018-03-21T18:28:02.128Z,102060.48
2018-03-21T18:31:06.164Z,102059.20
2018-03-21T18:34:09.503Z,102059.09
2018-03-21T18:37:13.736Z,102052.59
2018-03-21T18:40:18.243Z,102050.48
2018-03-21T18:43:21.644Z,102044.39
2018-03-21T18:46:24.973Z,102043.06
2018-03-21T18:49:36.591Z,102039.28
2018-03-21T18:52:40.756Z,102035.42
2018-03-21T18:55:47.115Z,102036.74
2018-03-21T18:58:51.663Z,102018.86
2018-03-21T19:01:55.031Z,102017.75
2018-03-21T19:04:58.358Z,102013.75
2018-03-21T19:08:01.757Z,102007.17
2018-03-21T19:11:06.075Z,102004.86
2018-03-21T19:14:09.528Z,102001.59
2018-03-21T19:17:12.900Z,101991.33
2018-03-21T19:20:16.252Z,101990.38
2018-03-21T19:23:19.675Z,101975.94
2018-03-21T19:26:23.208Z,101971.58
2018-03-21T19:29:26.592Z,101963.45
2018-03-21T19:32:30.061Z,101960.19
2018-03-21T19:35:33.435Z,101957.25
2018-03-21T19:38:36.857Z,101948.00
2018-03-21T19:41:40.291Z,101942.53
2018-03-21T19:44:43.717Z,101940.84
2018-03-21T19:47:47.162Z,101932.55
2018-03-21T19:50:50.564Z,101921.30
2018-03-21T19:57:38.571Z,101908.27
